Des Moines (DSM/KDSM)

Map

Destinations

Information

Location
Des Moines, IA
Local Time
23:32 / 11:32 pm
GMT Time
05:32 / 5:32 am
Gates
Unassigned
No FAA reported delays
METAR KDSM 260454Z 17010KT 10SM OVC075 M01/M07 A2995 RMK AO2 SLP152 T10061067
TAF KDSM 252320Z 2600/2624 22007KT P6SM BKN200 FM261600 25012G18KT P6SM FEW250
  • No charts available